createdAt,value
2023-04-01T00:02:27.309Z,11.00
2023-04-01T00:04:54.483Z,11.00
2023-04-01T00:07:21.405Z,10.90
2023-04-01T00:09:48.440Z,10.80
2023-04-01T00:12:15.631Z,11.00
2023-04-01T00:14:42.559Z,11.00
2023-04-01T00:17:09.627Z,10.90
2023-04-01T00:19:36.551Z,10.90
2023-04-01T00:22:03.596Z,10.80
2023-04-01T00:24:30.694Z,10.90
2023-04-01T00:26:57.558Z,10.90
2023-04-01T00:29:25.565Z,11.00
2023-04-01T00:31:52.717Z,11.10
2023-04-01T00:34:19.722Z,10.80
2023-04-01T00:36:46.684Z,10.70
2023-04-01T00:39:13.709Z,10.90
2023-04-01T00:41:41.329Z,10.90
2023-04-01T00:44:22.693Z,10.90
2023-04-01T00:46:49.762Z,10.80
2023-04-01T00:49:18.135Z,10.90
2023-04-01T00:51:45.492Z,10.80
2023-04-01T00:54:12.444Z,11.00
2023-04-01T00:57:20.016Z,11.00
2023-04-01T00:59:49.702Z,10.80
2023-04-01T01:02:16.941Z,10.80
2023-04-01T01:04:43.957Z,10.70
2023-04-01T01:07:35.491Z,10.80
2023-04-01T01:10:27.756Z,10.90
2023-04-01T01:13:03.865Z,10.80
2023-04-01T01:15:37.721Z,10.60
2023-04-01T01:18:36.686Z,10.90
2023-04-01T01:21:22.964Z,10.70
2023-04-01T01:23:58.661Z,10.70
2023-04-01T01:26:52.287Z,10.90
2023-04-01T01:29:43.704Z,10.70
2023-04-01T01:32:51.432Z,10.70
2023-04-01T01:35:22.364Z,10.80
2023-04-01T01:37:52.036Z,10.80
2023-04-01T01:40:19.209Z,10.70
2023-04-01T01:42:49.470Z,10.60
2023-04-01T01:45:18.907Z,10.70
2023-04-01T01:47:47.236Z,10.90
2023-04-01T01:50:14.786Z,10.70
2023-04-01T01:52:41.844Z,10.80
2023-04-01T01:55:29.768Z,10.70
2023-04-01T01:58:10.707Z,10.60
2023-04-01T02:00:39.431Z,10.80
2023-04-01T02:03:06.734Z,10.40
2023-04-01T02:05:33.965Z,10.70
2023-04-01T02:08:17.536Z,10.40
2023-04-01T02:10:48.121Z,10.40
2023-04-01T02:13:23.262Z,10.30
2023-04-01T02:15:50.584Z,10.60
2023-04-01T02:18:18.082Z,10.30
2023-04-01T02:20:44.994Z,10.30
2023-04-01T02:23:12.928Z,10.30
2023-04-01T02:25:39.923Z,10.30
2023-04-01T02:28:07.899Z,10.50
2023-04-01T02:30:36.211Z,10.50
2023-04-01T02:33:04.109Z,10.40
2023-04-01T02:35:31.644Z,10.30
2023-04-01T02:37:59.036Z,10.30
2023-04-01T02:40:26.002Z,10.30
2023-04-01T02:42:53.086Z,10.20
2023-04-01T02:45:20.118Z,10.60
2023-04-01T02:47:47.226Z,10.30
2023-04-01T02:50:14.226Z,10.30
2023-04-01T02:52:41.229Z,10.30
2023-04-01T02:55:08.686Z,10.10
2023-04-01T02:57:35.998Z,10.50
2023-04-01T03:00:03.617Z,10.20
2023-04-01T03:02:30.901Z,10.20
2023-04-01T03:04:58.003Z,10.20
2023-04-01T03:07:24.981Z,10.30
2023-04-01T03:09:51.984Z,10.30
2023-04-01T03:12:18.935Z,10.40
2023-04-01T03:14:50.698Z,10.30
2023-04-01T03:17:17.988Z,10.10
2023-04-01T03:19:45.752Z,10.10
2023-04-01T03:22:12.914Z,10.50
2023-04-01T03:24:39.949Z,10.20
2023-04-01T03:27:06.938Z,10.30
2023-04-01T03:29:33.914Z,10.40
2023-04-01T03:32:01.058Z,10.40
2023-04-01T03:34:28.002Z,10.30
2023-04-01T03:36:55.015Z,10.30
2023-04-01T03:39:22.142Z,10.20
2023-04-01T03:41:50.317Z,10.20
2023-04-01T03:44:17.251Z,10.30
2023-04-01T03:46:47.036Z,10.20
2023-04-01T03:49:15.700Z,10.20
2023-04-01T03:51:43.485Z,10.40
2023-04-01T03:54:11.251Z,10.10
2023-04-01T03:56:38.670Z,10.00
2023-04-01T03:59:07.127Z,10.20
2023-04-01T04:01:34.309Z,10.20
2023-04-01T04:04:01.647Z,10.30
2023-04-01T04:06:28.843Z,10.20
2023-04-01T04:08:55.971Z,10.20
2023-04-01T04:11:23.337Z,10.00
2023-04-01T04:13:53.366Z,10.10
2023-04-01T04:16:21.075Z,10.00
2023-04-01T04:18:54.770Z,10.00
2023-04-01T04:21:21.755Z,10.00
2023-04-01T04:23:48.792Z,10.10
2023-04-01T04:26:18.171Z,10.10
2023-04-01T04:28:51.579Z,10.10
2023-04-01T04:31:21.232Z,10.40
2023-04-01T04:33:48.319Z,10.20
2023-04-01T04:36:16.362Z,10.30
2023-04-01T04:38:43.885Z,10.30
2023-04-01T04:41:12.831Z,10.30
2023-04-01T04:43:41.421Z,10.10
2023-04-01T04:46:11.752Z,10.10
2023-04-01T04:48:39.286Z,10.20
2023-04-01T04:51:06.323Z,10.00
2023-04-01T04:53:33.449Z,10.20
2023-04-01T04:56:00.471Z,10.20
2023-04-01T04:58:38.451Z,10.10
2023-04-01T05:01:10.173Z,10.00
2023-04-01T05:03:38.177Z,10.10
2023-04-01T05:06:06.306Z,10.10
2023-04-01T05:08:33.939Z,10.20
2023-04-01T05:11:02.287Z,10.10
2023-04-01T05:13:30.498Z,10.00
2023-04-01T05:15:57.441Z,9.90
2023-04-01T05:18:24.469Z,10.10
2023-04-01T05:20:53.092Z,10.00
2023-04-01T05:23:22.074Z,10.10
2023-04-01T05:25:49.772Z,9.90
2023-04-01T05:28:17.121Z,10.10
2023-04-01T05:30:46.234Z,10.00
2023-04-01T05:33:24.874Z,10.10
2023-04-01T05:35:51.975Z,10.30
2023-04-01T05:38:18.938Z,10.00
2023-04-01T05:40:46.678Z,10.10
2023-04-01T05:43:13.764Z,10.30
2023-04-01T05:45:41.620Z,10.00
2023-04-01T05:48:14.327Z,10.20
2023-04-01T05:50:42.841Z,10.10
2023-04-01T05:53:11.338Z,9.90
2023-04-01T05:55:40.927Z,9.90
2023-04-01T05:58:08.190Z,10.10
2023-04-01T06:00:37.592Z,9.90
2023-04-01T06:03:04.983Z,9.80
2023-04-01T06:05:37.809Z,9.90
2023-04-01T06:08:11.162Z,9.70
2023-04-01T06:10:47.093Z,10.00
2023-04-01T06:13:39.927Z,9.90
2023-04-01T06:16:23.363Z,10.00
2023-04-01T06:18:55.763Z,9.80
2023-04-01T06:21:38.541Z,9.90
2023-04-01T06:24:38.868Z,9.80
2023-04-01T06:27:39.775Z,9.90
2023-04-01T06:30:44.293Z,10.00
2023-04-01T06:33:29.967Z,9.90
2023-04-01T06:36:32.482Z,10.00
2023-04-01T06:39:31.592Z,10.10
2023-04-01T06:42:10.733Z,10.10
2023-04-01T06:45:06.450Z,10.20
2023-04-01T06:48:04.329Z,10.30
2023-04-01T06:51:14.727Z,10.10
2023-04-01T06:54:21.647Z,10.10
2023-04-01T06:57:41.135Z,10.10
2023-04-01T07:00:24.335Z,10.10
2023-04-01T07:03:00.459Z,10.20
2023-04-01T07:05:27.487Z,10.20
2023-04-01T07:07:56.885Z,10.40
2023-04-01T07:10:43.882Z,10.10
2023-04-01T07:13:49.382Z,10.20
2023-04-01T07:16:40.395Z,9.90
2023-04-01T07:19:17.885Z,10.00
2023-04-01T07:22:06.003Z,10.30
2023-04-01T07:24:59.006Z,10.20
2023-04-01T07:27:26.754Z,10.20
2023-04-01T07:29:53.973Z,10.10
2023-04-01T07:32:30.731Z,10.20
2023-04-01T07:35:14.197Z,10.20
2023-04-01T07:38:02.739Z,10.30
2023-04-01T07:40:52.980Z,10.50
2023-04-01T07:43:39.069Z,10.40
2023-04-01T07:47:04.548Z,10.40
2023-04-01T07:49:57.032Z,10.30
2023-04-01T07:52:49.346Z,10.30
2023-04-01T07:55:31.854Z,10.40
2023-04-01T07:58:21.581Z,10.30
2023-04-01T08:01:13.707Z,10.60
2023-04-01T08:03:50.750Z,10.50
2023-04-01T08:06:42.661Z,10.30
2023-04-01T08:09:19.830Z,10.20
2023-04-01T08:12:19.109Z,10.30
2023-04-01T08:15:04.273Z,10.40
2023-04-01T08:17:59.012Z,10.20
2023-04-01T08:20:51.451Z,10.50
2023-04-01T08:23:24.799Z,10.60
2023-04-01T08:26:14.971Z,10.50
2023-04-01T08:28:55.429Z,10.70
2023-04-01T08:31:37.768Z,10.70
2023-04-01T08:34:06.474Z,10.90
2023-04-01T08:36:37.277Z,10.60
2023-04-01T08:39:20.599Z,10.70
2023-04-01T08:42:16.277Z,10.50
2023-04-01T08:45:01.699Z,10.70
2023-04-01T08:47:55.432Z,10.70
2023-04-01T08:50:47.704Z,10.40
2023-04-01T08:53:52.013Z,10.50
2023-04-01T08:56:47.853Z,10.90
2023-04-01T08:59:26.867Z,10.80
2023-04-01T09:02:05.761Z,10.70
2023-04-01T09:05:03.189Z,10.60
2023-04-01T09:07:36.484Z,10.60
2023-04-01T09:10:25.155Z,10.70
2023-04-01T09:13:16.067Z,10.70
2023-04-01T09:16:01.966Z,10.70
2023-04-01T09:18:41.980Z,10.70
2023-04-01T09:21:26.252Z,10.90
2023-04-01T09:24:18.402Z,10.80
2023-04-01T09:26:52.830Z,10.80
2023-04-01T09:29:45.297Z,10.80
2023-04-01T09:32:15.812Z,10.80
2023-04-01T09:35:17.700Z,11.00
2023-04-01T09:38:00.120Z,10.80
2023-04-01T09:40:27.453Z,10.90
2023-04-01T09:43:11.736Z,10.90
2023-04-01T09:45:55.178Z,11.00
2023-04-01T09:48:40.606Z,11.00
2023-04-01T09:51:50.962Z,10.90
2023-04-01T09:54:37.442Z,11.00
2023-04-01T09:57:51.840Z,11.00
2023-04-01T10:01:08.680Z,10.80
2023-04-01T10:04:12.416Z,10.70
2023-04-01T10:06:48.517Z,11.00
2023-04-01T10:09:43.788Z,10.70
2023-04-01T10:12:17.757Z,10.80
2023-04-01T10:15:12.633Z,10.60
2023-04-01T10:18:17.822Z,10.90
2023-04-01T10:20:52.265Z,10.70
2023-04-01T10:23:57.652Z,10.80
2023-04-01T10:26:34.019Z,10.80
2023-04-01T10:29:32.736Z,11.10
2023-04-01T10:32:34.253Z,10.90
2023-04-01T10:35:09.456Z,10.90
2023-04-01T10:37:51.915Z,11.10
2023-04-01T10:40:26.622Z,11.00
2023-04-01T10:43:39.037Z,11.00
2023-04-01T10:46:30.003Z,10.80
2023-04-01T10:49:21.679Z,10.70
2023-04-01T10:52:22.287Z,10.70
2023-04-01T10:55:46.300Z,11.00
2023-04-01T10:59:09.086Z,11.20
2023-04-01T11:02:21.562Z,11.20
2023-04-01T11:05:34.200Z,11.30
2023-04-01T11:08:27.562Z,11.20
2023-04-01T11:11:01.099Z,11.20
2023-04-01T11:13:48.514Z,10.90
2023-04-01T11:16:35.828Z,10.70
2023-04-01T11:19:31.559Z,11.00
2023-04-01T11:22:33.557Z,10.60
2023-04-01T11:25:23.144Z,10.80
2023-04-01T11:28:49.220Z,11.10
2023-04-01T11:31:19.881Z,11.20
2023-04-01T11:34:24.406Z,11.10
2023-04-01T11:37:04.530Z,10.70
2023-04-01T11:39:38.957Z,10.70
2023-04-01T11:43:02.560Z,10.80
2023-04-01T11:46:03.848Z,10.90
2023-04-01T11:48:45.980Z,11.10
2023-04-01T11:51:26.188Z,11.20
2023-04-01T11:54:15.802Z,11.50
2023-04-01T11:57:24.138Z,11.30
2023-04-01T12:00:32.600Z,11.90
2023-04-01T12:03:08.668Z,12.30
2023-04-01T12:05:41.815Z,12.50
2023-04-01T12:08:14.408Z,12.60
2023-04-01T12:10:54.555Z,12.40
2023-04-01T12:13:46.735Z,12.30
2023-04-01T12:16:47.050Z,12.10
2023-04-01T12:19:36.090Z,12.00
2023-04-01T12:22:13.495Z,11.90
2023-04-01T12:24:50.448Z,11.90
2023-04-01T12:27:48.959Z,11.90
2023-04-01T12:30:16.723Z,12.10
2023-04-01T12:33:14.229Z,12.20
2023-04-01T12:35:53.679Z,12.30
2023-04-01T12:38:23.732Z,12.30
2023-04-01T12:40:58.906Z,12.40
2023-04-01T12:43:35.376Z,12.50
2023-04-01T12:46:27.778Z,12.40
2023-04-01T12:49:34.681Z,12.50
2023-04-01T12:52:04.314Z,12.50
2023-04-01T12:55:09.784Z,12.50
2023-04-01T12:57:59.970Z,12.60
2023-04-01T13:00:56.318Z,12.50
2023-04-01T13:03:23.645Z,12.40
2023-04-01T13:06:24.454Z,12.40
2023-04-01T13:09:20.121Z,12.60
2023-04-01T13:12:07.011Z,12.60
2023-04-01T13:15:07.515Z,12.70
2023-04-01T13:18:12.224Z,12.70
2023-04-01T13:20:44.767Z,12.80
2023-04-01T13:23:35.177Z,12.80
2023-04-01T13:26:28.543Z,12.80
2023-04-01T13:29:17.912Z,12.70
2023-04-01T13:32:03.584Z,12.70
2023-04-01T13:34:45.637Z,12.50
2023-04-01T13:37:12.426Z,12.60
2023-04-01T13:39:58.720Z,12.60
2023-04-01T13:42:30.320Z,12.80
2023-04-01T13:45:04.350Z,12.90
2023-04-01T13:47:43.631Z,12.90
2023-04-01T13:50:19.337Z,12.70
2023-04-01T13:53:05.034Z,12.80
2023-04-01T13:55:56.468Z,12.80
2023-04-01T13:58:35.478Z,12.70
2023-04-01T14:01:31.578Z,12.70
2023-04-01T14:04:25.022Z,12.80
2023-04-01T14:07:19.895Z,13.00
2023-04-01T14:10:24.577Z,13.10
2023-04-01T14:13:13.862Z,13.00
2023-04-01T14:15:48.876Z,13.20
2023-04-01T14:18:47.513Z,13.20
2023-04-01T14:21:48.842Z,13.20
2023-04-01T14:24:31.241Z,13.10
2023-04-01T14:27:20.606Z,13.10
2023-04-01T14:29:59.322Z,13.00
2023-04-01T14:32:41.449Z,12.90
2023-04-01T14:35:20.386Z,12.90
2023-04-01T14:37:59.279Z,12.90
2023-04-01T14:40:29.719Z,12.90
2023-04-01T14:43:14.982Z,12.80
2023-04-01T14:46:11.702Z,12.80
2023-04-01T14:48:52.540Z,12.80
2023-04-01T14:51:22.331Z,12.60
2023-04-01T14:54:07.477Z,12.50
2023-04-01T14:57:14.831Z,12.40
2023-04-01T14:59:47.919Z,12.40
2023-04-01T15:02:52.396Z,12.30
2023-04-01T15:05:51.585Z,12.20
2023-04-01T15:08:33.573Z,12.20
2023-04-01T15:11:15.927Z,12.10
2023-04-01T15:13:58.530Z,12.10
2023-04-01T15:16:34.552Z,12.00
2023-04-01T15:19:30.234Z,12.00
2023-04-01T15:22:25.267Z,11.80
2023-04-01T15:25:04.455Z,11.90
2023-04-01T15:27:43.226Z,11.80
2023-04-01T15:30:16.786Z,11.90
2023-04-01T15:33:19.107Z,11.90
2023-04-01T15:36:04.843Z,11.90
2023-04-01T15:38:55.927Z,11.90
2023-04-01T15:41:29.239Z,11.80
2023-04-01T15:43:56.399Z,11.70
2023-04-01T15:46:42.202Z,11.70
2023-04-01T15:49:09.251Z,11.60
2023-04-01T15:51:54.553Z,11.60
2023-04-01T15:54:47.460Z,11.70
2023-04-01T15:57:37.017Z,11.60
2023-04-01T16:00:27.430Z,11.50
2023-04-01T16:03:02.123Z,11.40
2023-04-01T16:05:44.201Z,11.40
2023-04-01T16:08:23.309Z,11.40
2023-04-01T16:11:08.391Z,11.30
2023-04-01T16:13:57.794Z,11.30
2023-04-01T16:16:32.445Z,11.40
2023-04-01T16:19:13.400Z,11.20
2023-04-01T16:21:46.623Z,11.20
2023-04-01T16:24:26.307Z,11.20
2023-04-01T16:26:58.994Z,11.20
2023-04-01T16:29:41.602Z,11.20
2023-04-01T16:32:32.777Z,11.20
2023-04-01T16:35:14.996Z,11.10
2023-04-01T16:37:53.320Z,11.10
2023-04-01T16:40:45.077Z,11.00
2023-04-01T16:43:22.946Z,10.90
2023-04-01T16:46:17.062Z,10.90
2023-04-01T16:49:09.965Z,10.80
2023-04-01T16:51:47.716Z,10.80
2023-04-01T16:54:48.004Z,10.80
2023-04-01T16:57:23.561Z,10.70
2023-04-01T17:00:18.714Z,10.80
2023-04-01T17:02:53.477Z,10.70
2023-04-01T17:05:20.615Z,10.80
2023-04-01T17:08:02.236Z,10.80
2023-04-01T17:10:53.554Z,10.70
2023-04-01T17:13:28.286Z,10.70
2023-04-01T17:16:32.001Z,10.70
2023-04-01T17:19:23.971Z,10.70
2023-04-01T17:22:14.092Z,10.50
2023-04-01T17:24:53.220Z,10.70
2023-04-01T17:27:29.864Z,10.70
2023-04-01T17:30:21.783Z,10.70
2023-04-01T17:33:11.695Z,10.80
2023-04-01T17:35:44.237Z,10.50
2023-04-01T17:38:35.857Z,10.70
2023-04-01T17:41:26.558Z,10.80
2023-04-01T17:44:34.088Z,10.50
2023-04-01T17:47:07.109Z,10.70
2023-04-01T17:49:45.902Z,10.60
2023-04-01T17:52:41.261Z,10.80
2023-04-01T17:55:36.189Z,10.60
2023-04-01T17:58:21.290Z,10.70
2023-04-01T18:01:14.526Z,10.60
2023-04-01T18:04:01.360Z,10.60
2023-04-01T18:06:43.061Z,10.70
2023-04-01T18:09:14.816Z,10.60
2023-04-01T18:11:53.753Z,10.60
2023-04-01T18:14:54.766Z,10.60
2023-04-01T18:17:40.287Z,10.90
2023-04-01T18:20:07.358Z,10.60
2023-04-01T18:22:56.410Z,10.80
2023-04-01T18:25:43.538Z,10.70
2023-04-01T18:28:16.486Z,10.60
2023-04-01T18:30:44.082Z,10.70
2023-04-01T18:33:20.002Z,10.60
2023-04-01T18:36:11.886Z,10.80
2023-04-01T18:38:43.040Z,10.70
2023-04-01T18:41:29.759Z,10.60
2023-04-01T18:44:21.337Z,10.70
2023-04-01T18:47:12.284Z,10.60
2023-04-01T18:49:48.102Z,10.90
2023-04-01T18:52:15.145Z,10.50
2023-04-01T18:55:09.414Z,10.60
2023-04-01T18:57:59.901Z,10.60
2023-04-01T19:00:46.102Z,10.60
2023-04-01T19:03:22.170Z,10.80
2023-04-01T19:05:51.329Z,10.80
2023-04-01T19:08:26.877Z,10.70
2023-04-01T19:10:59.753Z,10.60
2023-04-01T19:13:51.119Z,10.60
2023-04-01T19:16:37.800Z,10.60
2023-04-01T19:19:27.996Z,10.50
2023-04-01T19:21:58.529Z,10.70
2023-04-01T19:24:25.718Z,10.60
2023-04-01T19:27:25.868Z,10.50
2023-04-01T19:30:05.678Z,10.60
2023-04-01T19:32:50.594Z,10.50
2023-04-01T19:35:40.944Z,10.30
2023-04-01T19:38:21.746Z,10.40
2023-04-01T19:40:54.762Z,10.70
2023-04-01T19:43:59.561Z,10.10
2023-04-01T19:47:12.543Z,10.50
2023-04-01T19:49:45.615Z,10.30
2023-04-01T19:52:25.135Z,10.30
2023-04-01T19:54:58.388Z,10.40
2023-04-01T19:57:52.636Z,10.50
2023-04-01T20:00:28.580Z,10.30
2023-04-01T20:03:43.383Z,10.20
2023-04-01T20:06:21.907Z,10.20
2023-04-01T20:09:07.181Z,10.00
2023-04-01T20:12:00.193Z,10.00
2023-04-01T20:14:52.320Z,9.80
2023-04-01T20:17:24.500Z,9.80
2023-04-01T20:20:11.265Z,9.90
2023-04-01T20:22:47.588Z,9.70
2023-04-01T20:25:28.686Z,9.20
2023-04-01T20:28:03.205Z,9.90
2023-04-01T20:30:46.076Z,9.70
2023-04-01T20:33:47.008Z,9.70
2023-04-01T20:36:26.036Z,9.60
2023-04-01T20:39:21.828Z,9.60
2023-04-01T20:42:14.022Z,9.60
2023-04-01T20:44:40.877Z,9.60
2023-04-01T20:47:29.130Z,9.70
2023-04-01T20:50:18.321Z,9.60
2023-04-01T20:53:17.784Z,9.60
2023-04-01T20:55:48.570Z,9.40
2023-04-01T20:58:41.709Z,9.50
2023-04-01T21:01:20.649Z,9.60
2023-04-01T21:04:23.373Z,9.70
2023-04-01T21:07:15.132Z,9.60
2023-04-01T21:09:53.880Z,9.50
2023-04-01T21:12:42.250Z,9.50
2023-04-01T21:15:16.634Z,9.40
2023-04-01T21:18:28.427Z,9.60
2023-04-01T21:21:18.650Z,9.40
2023-04-01T21:24:07.881Z,9.60
2023-04-01T21:26:51.149Z,9.50
2023-04-01T21:29:41.697Z,9.70
2023-04-01T21:32:37.596Z,9.60
2023-04-01T21:35:19.465Z,9.40
2023-04-01T21:37:51.677Z,9.30
2023-04-01T21:40:26.006Z,9.50
2023-04-01T21:43:30.983Z,9.50
2023-04-01T21:46:29.661Z,9.60
2023-04-01T21:49:09.336Z,9.40
2023-04-01T21:51:52.718Z,9.50
2023-04-01T21:54:42.288Z,9.60
2023-04-01T21:57:19.175Z,9.40
2023-04-01T22:00:06.577Z,9.50
2023-04-01T22:02:52.408Z,9.50
2023-04-01T22:05:22.689Z,9.30
2023-04-01T22:08:00.550Z,9.50
2023-04-01T22:10:40.404Z,9.20
2023-04-01T22:13:19.789Z,9.30
2023-04-01T22:15:56.939Z,9.30
2023-04-01T22:18:30.049Z,9.30
2023-04-01T22:21:06.448Z,9.40
2023-04-01T22:23:46.963Z,9.30
2023-04-01T22:26:24.082Z,9.20
2023-04-01T22:29:00.317Z,9.30
2023-04-01T22:31:35.016Z,9.40
2023-04-01T22:34:23.669Z,9.40
2023-04-01T22:37:09.490Z,9.40
2023-04-01T22:39:49.755Z,9.30
2023-04-01T22:42:35.475Z,9.50
2023-04-01T22:45:14.924Z,9.30
2023-04-01T22:47:44.714Z,9.30
2023-04-01T22:50:17.162Z,9.40
2023-04-01T22:52:46.855Z,9.30
2023-04-01T22:55:23.528Z,9.30
2023-04-01T22:57:58.597Z,9.30
2023-04-01T23:00:29.199Z,9.40
2023-04-01T23:03:06.351Z,9.30
2023-04-01T23:05:33.631Z,9.30
2023-04-01T23:08:22.593Z,9.20
2023-04-01T23:10:55.261Z,9.30
2023-04-01T23:13:25.862Z,9.30
2023-04-01T23:15:53.355Z,9.50
2023-04-01T23:18:49.398Z,9.20
2023-04-01T23:21:46.234Z,9.30
2023-04-01T23:24:48.898Z,9.20
2023-04-01T23:27:20.414Z,9.30
2023-04-01T23:29:47.427Z,9.20
2023-04-01T23:32:18.403Z,9.20
2023-04-01T23:34:52.425Z,9.40
2023-04-01T23:37:20.339Z,9.30
2023-04-01T23:39:48.654Z,9.30
2023-04-01T23:42:25.422Z,9.30
2023-04-01T23:44:57.850Z,9.20
2023-04-01T23:47:27.683Z,9.20
2023-04-01T23:49:59.316Z,9.30
2023-04-01T23:52:31.947Z,9.20
2023-04-01T23:55:01.430Z,9.00
2023-04-01T23:57:38.105Z,9.20
